Batumi International Airport
UGSB : rendu visible

Aérodrome :











RETROUVEZ-NOUS SUR...

 
LOGIN :

S'inscrire | Disclaimer

   EN    FR    IT 

 









Légende :    VFR   VFR Marginal   IFR   IFR Intensif   IFR Très Intensif
Visi : 
Plafond : 
>= 8 km
>= 3000ft
5 à 8 km
1000 à 3000 ft
1500m à 5 km
500 à 1000 ft
800 à 1500m
200 à 500 ft
< 800m
< 200 ft
Symboles :   Orages  Brouillard  Fortes neiges  Fortes précipitations  Vent > 20 kt







- Altitude de l'aérodrome : 105 ft
- Code IATA : BUS


UGSB - Batumi International

DERNIER METAR :
  • 180800Z 33004KT 300V010 CAVOK 18/11 Q1009 R13/CLRD70 NOSIG

METARs EXPIRÉS :
  • 180730Z 30004KT 260V360 CAVOK 18/11 Q1009 R13/70D NOSIG
  • 180700Z 30004KT 260V340 CAVOK 18/12 Q1009 R13/CLRD70 NOSIG
  • 180630Z 30005KT 240V350 CAVOK 17/12 Q1009 R13/CLRD70 NOSIG
  • 180600Z 22008KT CAVOK 20/12 Q1009 R13/CLRD70 NOSIG
  • 180530Z 22008KT 180V240 CAVOK 19/11 Q1009 R13/CLRD70 NOSIG

TAF TAF UGSB
Valide du 18 à 06h jusqu'au 18 à 15h UTC


180500Z 1806/1815 VRB03KT CAVOK
FIR UGGG / Asie



MET'MAP, la Météo Aéronautique d'un coup d'oeil ! - Copyright ORBIFLY Décembre 2007 - Disclaimer

ORBIFLY MET'MAP TEAM :

Programmation & Développement : Alexandra Zaïnal
Conception & Développement : Baudouin d'Aumeries
Co-Programmation & Développement : Marc-Olivier Méhu
Soutien technique & logistique : Manuel Goepfert

Contact : metmap@orbifly.com




SOURCES & CREDITS :

   NOAA       Earth
Advisory